Aérodrome :
LOGIN :

S'inscrire | Disclaimer

   EN    FR    IT 

 










Légende :    VFR   VFR Marginal   IFR   IFR Intensif   IFR Très Intensif
Visi : 
Plafond : 
>= 8 km
>= 3000ft
5 à 8 km
1000 à 3000 ft
1500m à 5 km
500 à 1000 ft
800 à 1500m
200 à 500 ft
< 800m
< 200 ft
Symboles :   Orages  Brouillard  Fortes neiges  Fortes précipitations  Vent > 20 kt
SIGMETs :   Divers  Orages  Givrage  Turbulence  Onde Orograph.  Cendres Volcan.






- Altitude de l'aérodrome : 538 ft
- Code IATA : TNF


LFPN - Toussus Le Noble

DERNIER METAR :
  • 210230Z AUTO 27004KT 240V300 2800 -DZ BR OVC004 10/09 Q1009

METARs EXPIRÉS :
  • 210200Z AUTO 27005KT 240V300 8000 3600 OVC005 10/09 Q1009
  • 210130Z AUTO 32007KT 9999 -DZ OVC005 10/10 Q1008
  • 210100Z AUTO 31006KT 5000 -DZ BR OVC004 10/10 Q1008
  • 210030Z AUTO 34006KT 5000 -DZ BR OVC004 10/10 Q1008
  • 210000Z AUTO 36007KT 5000 -DZ BR OVC004 10/10 Q1007 BECMG OVC006

Prévision TAF périmée.
ATIS : +33 1 39 56 54 70



MET'MAP, la Météo Aéronautique d'un coup d'oeil ! - Copyright ORBIFLY Décembre 2007 - Disclaimer

ORBIFLY MET'MAP TEAM :

Programmation & Développement : Alexandra Zaïnal
Conception & Développement : Baudouin d'Aumeries
Co-Programmation & Développement : Marc-Olivier Méhu
Soutien technique & logistique : Manuel Goepfert

Contact : metmap@orbifly.com




SOURCES & CREDITS :

   NOAA